Time;durP1;ratioP1;P1;durP2;ratioP2;P2;SDS_P1;SDS_P2;PMS_P1;PMS_P2;Temp;Humidity;BMP_temperature;BMP_pressure;BME280_temperature;BME280_humidity;BME280_pressure;Samples;Min_cycle;Max_cycle;Signal;HPM_P1;HPM_P2
2022/12/27 00:01:59;;;;;;;16.27;4.53;;;3.50;99.90;;;;;;4983978;28;20124;-67
2022/12/27 00:04:25;;;;;;;16.90;3.78;;;3.50;99.90;;;;;;4980206;28;20560;-68
2022/12/27 00:06:51;;;;;;;13.30;4.18;;;3.50;99.90;;;;;;4985139;28;20128;-66
2022/12/27 00:09:16;;;;;;;18.25;4.25;;;3.50;99.90;;;;;;4970602;28;20041;-65
2022/12/27 00:11:42;;;;;;;20.35;4.38;;;3.40;99.90;;;;;;4983054;28;20041;-68
2022/12/27 00:14:09;;;;;;;19.73;4.38;;;3.40;99.90;;;;;;4985923;28;20034;-66
2022/12/27 00:16:35;;;;;;;19.27;4.40;;;3.40;99.90;;;;;;4986158;28;20566;-68
2022/12/27 00:19:00;;;;;;;18.25;4.38;;;3.40;99.90;;;;;;4985575;28;20038;-69
2022/12/27 00:21:26;;;;;;;16.40;4.47;;;3.30;99.90;;;;;;4983971;28;20641;-66
2022/12/27 00:23:53;;;;;;;13.02;4.35;;;3.30;99.90;;;;;;5000568;28;20045;-68
2022/12/27 00:26:22;;;;;;;12.50;3.85;;;3.20;99.90;;;;;;4984110;28;20034;-66
2022/12/27 00:28:48;;;;;;;15.13;4.28;;;3.30;99.90;;;;;;4988820;28;20494;-68
2022/12/27 00:31:14;;;;;;;13.40;4.20;;;3.30;99.90;;;;;;4984979;28;20046;-67
2022/12/27 00:33:42;;;;;;;15.75;4.50;;;3.20;99.90;;;;;;4966442;28;20048;-71
2022/12/27 00:36:11;;;;;;;16.98;4.72;;;3.20;99.90;;;;;;4982388;28;20440;-68
2022/12/27 00:38:36;;;;;;;14.40;4.38;;;3.20;99.90;;;;;;4982846;28;20481;-66
2022/12/27 00:41:02;;;;;;;11.40;3.88;;;3.20;99.90;;;;;;4987366;28;20033;-65
2022/12/27 00:43:28;;;;;;;16.17;4.22;;;3.10;99.90;;;;;;4982152;28;20042;-68
2022/12/27 00:45:54;;;;;;;17.77;4.72;;;3.20;99.90;;;;;;4966527;28;20057;-66
2022/12/27 00:48:19;;;;;;;14.52;3.92;;;3.20;99.90;;;;;;4998253;28;20057;-66
2022/12/27 00:50:46;;;;;;;17.67;4.07;;;3.20;99.90;;;;;;4986604;28;20487;-67
2022/12/27 00:53:12;;;;;;;21.27;4.13;;;3.20;99.90;;;;;;4981742;28;20042;-68
2022/12/27 00:55:40;;;;;;;18.23;4.18;;;3.20;99.90;;;;;;5001218;28;20052;-67
2022/12/27 00:58:06;;;;;;;17.90;4.55;;;3.30;99.90;;;;;;4984671;28;20049;-65
2022/12/27 01:00:32;;;;;;;12.77;4.10;;;3.30;99.90;;;;;;4980660;28;20038;-67
2022/12/27 01:02:57;;;;;;;14.77;4.03;;;3.30;99.90;;;;;;4967812;28;20041;-67
2022/12/27 01:05:23;;;;;;;15.85;4.40;;;3.40;99.90;;;;;;4985170;28;20037;-66
2022/12/27 01:07:49;;;;;;;15.70;3.85;;;3.50;99.90;;;;;;4997874;28;20564;-65
2022/12/27 01:10:14;;;;;;;19.73;4.38;;;3.40;99.90;;;;;;5000236;28;20056;-64
2022/12/27 01:12:40;;;;;;;17.52;4.07;;;3.50;99.90;;;;;;4981916;28;20044;-67
2022/12/27 01:15:07;;;;;;;12.05;3.70;;;3.50;99.90;;;;;;4983210;28;20408;-65
2022/12/27 01:17:33;;;;;;;15.38;4.32;;;3.50;99.90;;;;;;4983507;28;20037;-66
2022/12/27 01:19:59;;;;;;;20.27;4.65;;;3.50;99.90;;;;;;4985213;28;20045;-66
2022/12/27 01:22:24;;;;;;;18.33;4.47;;;3.60;99.90;;;;;;4985993;28;20506;-66
2022/12/27 01:24:50;;;;;;;16.65;4.40;;;3.60;99.90;;;;;;4988997;28;20030;-67
2022/12/27 01:27:16;;;;;;;14.32;4.25;;;3.50;99.90;;;;;;4988778;28;20129;-64
2022/12/27 01:29:41;;;;;;;22.50;4.38;;;3.50;99.90;;;;;;4988372;28;20053;-65
2022/12/27 01:32:07;;;;;;;18.13;4.40;;;3.60;99.90;;;;;;4983777;28;20053;-67
2022/12/27 01:34:33;;;;;;;16.15;4.53;;;3.60;99.90;;;;;;4989157;28;20048;-70
2022/12/27 01:36:59;;;;;;;21.42;4.57;;;3.60;99.90;;;;;;4988610;28;20503;-65
2022/12/27 01:39:24;;;;;;;17.50;4.22;;;3.50;99.90;;;;;;4990044;28;20069;-65
2022/12/27 01:44:58;;;;;;;20.00;4.70;;;3.60;99.90;;;;;;4987949;28;20104;-65
2022/12/27 01:47:41;;;;;;;19.10;5.13;;;3.70;99.90;;;;;;4985555;28;20053;-68
2022/12/27 01:50:33;;;;;;;22.55;5.07;;;3.70;99.90;;;;;;5001699;28;20112;-66
2022/12/27 01:53:23;;;;;;;19.73;4.72;;;3.80;99.90;;;;;;4986658;28;20037;-66
2022/12/27 01:56:02;;;;;;;16.73;4.35;;;3.90;99.90;;;;;;4988739;28;20441;-65
2022/12/27 01:58:39;;;;;;;19.63;4.25;;;3.90;99.90;;;;;;4986653;28;20057;-65
2022/12/27 02:01:10;;;;;;;22.02;4.07;;;4.00;99.90;;;;;;4986539;28;20041;-66
2022/12/27 02:03:42;;;;;;;17.15;4.80;;;4.00;99.90;;;;;;5002067;28;20100;-65
2022/12/27 02:06:11;;;;;;;21.17;4.30;;;4.00;99.90;;;;;;4985741;28;20140;-69
2022/12/27 02:09:14;;;;;;;23.08;5.00;;;4.10;99.90;;;;;;4986835;28;20086;-67
2022/12/27 02:11:50;;;;;;;;;;;4.10;99.90;;;;;;4988749;28;20045;-67
2022/12/27 02:14:41;;;;;;;21.85;4.43;;;4.10;99.90;;;;;;5002332;28;20352;-65
2022/12/27 02:17:10;;;;;;;20.38;4.90;;;4.10;99.90;;;;;;4988637;28;20042;-68
2022/12/27 02:19:43;;;;;;;21.23;4.85;;;4.10;99.90;;;;;;5002702;28;20056;-66
2022/12/27 02:24:01;;;;;;;21.98;4.97;;;4.10;99.90;;;;;;4985612;28;20045;-66
2022/12/27 02:25:57;;;;;;;26.20;5.32;;;4.10;99.90;;;;;;4988028;28;20396;-65
2022/12/27 02:28:47;;;;;;;28.25;5.70;;;4.10;99.90;;;;;;5003508;28;20034;-67
2022/12/27 02:31:19;;;;;;;24.15;5.68;;;4.00;99.90;;;;;;4987821;28;20037;-65
2022/12/27 02:33:49;;;;;;;18.92;4.82;;;4.00;99.90;;;;;;4986990;28;20042;-65
2022/12/27 02:36:25;;;;;;;18.92;4.85;;;3.90;99.90;;;;;;5002178;28;20049;-66
2022/12/27 02:38:55;;;;;;;18.75;5.07;;;4.00;99.90;;;;;;4984717;28;20155;-66
2022/12/27 02:55:28;;;;;;;18.83;5.38;;;4.00;99.90;;;;;;4999076;28;20491;-66
2022/12/27 02:58:29;;;;;;;19.15;4.47;;;4.00;99.90;;;;;;5002643;28;20049;-66
2022/12/27 03:04:43;;;;;;;20.73;5.38;;;4.00;99.90;;;;;;4983905;28;20049;-64
2022/12/27 03:07:26;;;;;;;22.88;4.43;;;4.00;99.90;;;;;;4980840;28;20045;-66
2022/12/27 03:16:25;;;;;;;21.67;3.88;;;3.90;99.90;;;;;;4924049;28;20050;-65
2022/12/27 03:19:06;;;;;;;19.20;3.83;;;3.90;99.90;;;;;;4942350;28;20039;-66
2022/12/27 03:27:31;;;;;;;22.27;4.20;;;4.10;99.90;;;;;;4982879;28;20049;-66
2022/12/27 03:33:12;;;;;;;26.17;4.20;;;4.00;99.90;;;;;;4983406;28;20096;-67
2022/12/27 03:38:01;;;;;;;18.92;4.65;;;4.00;99.90;;;;;;4985092;28;20042;-68
2022/12/27 03:38:37;;;;;;;26.58;4.78;;;4.00;99.90;;;;;;4986135;28;20456;-65
2022/12/27 03:43:50;;;;;;;21.83;4.57;;;4.20;99.90;;;;;;4988637;28;20045;-70
2022/12/27 03:46:32;;;;;;;22.00;4.95;;;4.30;99.90;;;;;;4984408;28;20050;-66
2022/12/27 03:49:11;;;;;;;19.67;4.60;;;4.40;99.90;;;;;;4987317;28;20042;-66
2022/12/27 03:52:06;;;;;;;19.00;4.38;;;4.30;99.90;;;;;;4984614;28;20400;-66
2022/12/27 03:54:41;;;;;;;20.45;4.13;;;4.30;99.90;;;;;;4987613;28;20111;-68
2022/12/27 03:57:10;;;;;;;22.88;4.43;;;4.40;99.90;;;;;;4985348;28;20049;-66
2022/12/27 03:59:37;;;;;;;16.48;4.70;;;4.30;99.90;;;;;;4983965;28;20420;-68
2022/12/27 04:02:03;;;;;;;20.40;4.40;;;4.30;99.90;;;;;;4983868;28;20072;-67
2022/12/27 04:04:28;;;;;;;25.42;4.05;;;4.30;99.90;;;;;;4984947;28;20037;-67
2022/12/27 04:06:54;;;;;;;18.88;4.13;;;4.30;99.90;;;;;;4989134;28;20462;-67
2022/12/27 04:36:42;;;;;;;16.75;3.65;;;4.20;99.90;;;;;;4985542;28;20057;-66
2022/12/27 04:39:07;;;;;;;18.45;4.05;;;4.10;99.90;;;;;;4986708;28;20041;-68
2022/12/27 04:55:18;;;;;;;19.30;3.58;;;4.00;99.90;;;;;;4987168;28;20514;-67
2022/12/27 04:57:44;;;;;;;20.42;3.90;;;4.00;99.90;;;;;;4990374;28;20077;-68
2022/12/27 05:02:55;;;;;;;14.73;3.60;;;3.80;99.90;;;;;;4989914;28;20045;-68
2022/12/27 05:05:21;;;;;;;26.17;4.32;;;3.80;99.90;;;;;;5008987;28;20038;-67
2022/12/27 05:16:00;;;;;;;21.63;4.10;;;3.80;99.90;;;;;;4987698;28;20068;-67
2022/12/27 05:18:26;;;;;;;14.18;3.60;;;3.80;99.90;;;;;;4985520;28;20049;-68
2022/12/27 05:20:52;;;;;;;14.18;4.15;;;3.90;99.90;;;;;;4985546;28;20041;-67
2022/12/27 05:26:01;;;;;;;20.13;4.35;;;4.10;99.90;;;;;;4990636;28;20076;-65
2022/12/27 05:28:27;;;;;;;19.27;4.18;;;4.10;99.90;;;;;;4986320;28;20065;-66
2022/12/27 05:30:53;;;;;;;19.10;4.07;;;4.30;99.90;;;;;;4988404;28;21534;-65
2022/12/27 05:33:18;;;;;;;21.08;4.15;;;4.30;99.90;;;;;;4987811;28;20050;-68
2022/12/27 05:35:44;;;;;;;19.65;3.83;;;4.30;99.90;;;;;;4990224;28;20369;-70
2022/12/27 05:38:09;;;;;;;17.40;3.90;;;4.30;99.90;;;;;;4988764;28;20050;-69
2022/12/27 05:40:35;;;;;;;16.55;4.40;;;4.30;99.90;;;;;;4990576;28;20133;-68
2022/12/27 05:43:02;;;;;;;16.55;4.28;;;4.40;99.90;;;;;;4988411;28;20029;-67
2022/12/27 05:45:28;;;;;;;22.70;4.40;;;4.50;99.90;;;;;;4990432;28;20500;-69
2022/12/27 05:47:54;;;;;;;32.33;5.82;;;4.50;99.90;;;;;;4988377;28;20049;-67
2022/12/27 05:50:20;;;;;;;20.33;5.78;;;4.40;99.90;;;;;;4986418;28;20046;-70
2022/12/27 05:52:45;;;;;;;18.02;4.63;;;4.40;99.90;;;;;;4989490;28;20045;-67
2022/12/27 05:55:11;;;;;;;30.13;5.68;;;4.50;99.90;;;;;;5006523;28;20038;-67
2022/12/27 05:57:37;;;;;;;22.63;5.10;;;4.50;99.90;;;;;;4985945;28;20049;-69
2022/12/27 06:00:07;;;;;;;23.80;5.22;;;4.60;99.90;;;;;;4989553;28;20382;-67
2022/12/27 06:02:32;;;;;;;22.20;5.65;;;4.50;99.90;;;;;;4987417;28;20499;-67
2022/12/27 06:04:58;;;;;;;24.00;5.22;;;4.50;99.90;;;;;;4987218;28;20054;-69
2022/12/27 06:07:23;;;;;;;24.25;4.82;;;4.50;99.90;;;;;;4986183;28;20054;-68
2022/12/27 06:09:50;;;;;;;30.42;5.47;;;4.50;99.90;;;;;;4987754;28;20057;-67
2022/12/27 06:12:15;;;;;;;20.63;4.47;;;4.40;99.90;;;;;;4987688;28;20447;-68
2022/12/27 06:14:41;;;;;;;15.30;4.28;;;4.40;99.90;;;;;;4986137;28;20046;-67
2022/12/27 06:17:07;;;;;;;27.80;4.85;;;4.40;99.90;;;;;;4984687;28;20767;-68
2022/12/27 06:19:32;;;;;;;24.58;4.65;;;4.50;99.90;;;;;;4987063;28;20038;-66
2022/12/27 06:21:58;;;;;;;24.45;4.90;;;4.50;99.90;;;;;;4985610;28;20041;-67
2022/12/27 06:24:23;;;;;;;19.63;4.22;;;4.50;99.90;;;;;;4987589;28;20060;-68
2022/12/27 06:26:49;;;;;;;28.73;4.75;;;4.60;99.90;;;;;;4985596;28;20684;-70
2022/12/27 06:29:15;;;;;;;19.23;4.90;;;4.60;99.90;;;;;;4986202;28;20037;-67
2022/12/27 06:31:40;;;;;;;23.65;4.57;;;4.70;99.90;;;;;;4985287;28;20560;-69
2022/12/27 06:34:06;;;;;;;18.42;4.60;;;4.60;99.90;;;;;;5000630;28;20103;-69
2022/12/27 06:36:32;;;;;;;18.38;4.35;;;4.60;99.90;;;;;;5001481;28;20057;-67
2022/12/27 06:38:58;;;;;;;26.50;5.20;;;4.60;99.90;;;;;;5001271;28;20038;-67
2022/12/27 06:41:24;;;;;;;20.40;4.60;;;4.50;99.90;;;;;;4987891;28;20045;-68
2022/12/27 06:43:54;;;;;;;23.13;5.13;;;4.50;99.90;;;;;;4987481;28;20040;-67
2022/12/27 06:46:19;;;;;;;27.77;5.40;;;4.40;99.90;;;;;;4987589;28;20064;-67
2022/12/27 06:48:46;;;;;;;25.67;5.97;;;4.40;99.90;;;;;;4985761;28;20559;-68
2022/12/27 06:51:13;;;;;;;30.92;6.68;;;4.30;99.90;;;;;;5003253;28;20052;-67
2022/12/27 06:53:39;;;;;;;27.42;6.60;;;4.20;99.90;;;;;;4986813;28;20041;-71
2022/12/27 06:56:15;;;;;;;17.25;5.65;;;4.30;99.90;;;;;;4998331;28;20116;-68
2022/12/27 06:58:41;;;;;;;32.35;6.45;;;4.20;99.90;;;;;;4988305;28;20037;-66
2022/12/27 07:01:25;;;;;;;25.45;5.07;;;4.20;99.90;;;;;;4986056;28;20037;-67
2022/12/27 07:03:53;;;;;;;19.38;5.40;;;4.30;99.90;;;;;;4983091;28;20160;-68
2022/12/27 07:06:19;;;;;;;25.88;6.13;;;4.30;99.90;;;;;;5000864;28;20397;-70
2022/12/27 07:08:46;;;;;;;22.05;4.95;;;4.40;99.90;;;;;;4986654;28;20492;-66
2022/12/27 07:11:12;;;;;;;17.75;4.90;;;4.30;99.90;;;;;;4984615;28;20046;-67
2022/12/27 07:13:43;;;;;;;22.67;4.40;;;4.30;99.90;;;;;;4986447;28;20073;-67
2022/12/27 07:16:11;;;;;;;15.35;3.95;;;4.30;99.90;;;;;;4987561;28;20050;-68
2022/12/27 07:18:38;;;;;;;17.20;4.30;;;4.40;99.90;;;;;;4985173;28;20619;-65
2022/12/27 07:21:09;;;;;;;18.83;5.03;;;4.30;99.90;;;;;;4990554;28;20039;-68
2022/12/27 07:23:35;;;;;;;18.30;5.78;;;4.30;99.90;;;;;;4982930;28;20132;-68
2022/12/27 07:26:06;;;;;;;24.80;6.47;;;4.30;99.90;;;;;;4986302;28;20033;-65
2022/12/27 07:28:32;;;;;;;22.90;6.10;;;4.30;99.90;;;;;;4990852;28;20038;-68
2022/12/27 07:30:57;;;;;;;26.85;6.03;;;4.30;99.90;;;;;;4989644;28;20041;-67
2022/12/27 07:33:23;;;;;;;23.00;5.35;;;4.30;99.90;;;;;;4986502;28;20048;-68
2022/12/27 07:35:55;;;;;;;21.20;4.90;;;4.30;99.90;;;;;;4988173;28;20045;-70
2022/12/27 07:38:21;;;;;;;27.27;4.90;;;4.30;99.90;;;;;;4984627;28;20042;-68
2022/12/27 07:40:46;;;;;;;22.10;4.60;;;4.20;99.90;;;;;;4999322;28;20057;-66
2022/12/27 07:43:12;;;;;;;19.80;4.68;;;4.20;99.90;;;;;;5001701;28;20042;-70
2022/12/27 07:45:37;;;;;;;20.88;5.13;;;4.20;99.90;;;;;;4986746;28;20076;-71
2022/12/27 07:48:03;;;;;;;20.58;4.55;;;4.20;99.90;;;;;;4981046;28;20042;-71
2022/12/27 07:50:29;;;;;;;23.65;5.15;;;4.30;99.90;;;;;;4997769;28;20334;-74
2022/12/27 07:52:54;;;;;;;24.70;5.32;;;4.10;99.90;;;;;;4984905;28;20121;-73
2022/12/27 07:55:20;;;;;;;18.92;5.95;;;4.10;99.90;;;;;;4985557;28;20045;-71
2022/12/27 07:57:45;;;;;;;22.40;5.95;;;4.10;99.90;;;;;;4984216;28;20073;-71
2022/12/27 08:00:11;;;;;;;23.52;5.50;;;4.00;99.90;;;;;;4986120;28;20038;-70
2022/12/27 08:02:37;;;;;;;23.67;5.13;;;4.00;99.90;;;;;;4982683;28;20050;-71
2022/12/27 08:05:04;;;;;;;20.10;5.47;;;3.90;99.90;;;;;;4986299;28;20052;-70
2022/12/27 08:07:30;;;;;;;26.13;5.75;;;3.80;99.90;;;;;;4982124;28;20054;-70
2022/12/27 08:09:56;;;;;;;26.30;5.55;;;3.90;99.90;;;;;;4986455;28;20037;-70
2022/12/27 08:12:22;;;;;;;31.40;6.25;;;3.80;99.90;;;;;;4982659;28;20048;-70
2022/12/27 08:14:47;;;;;;;26.02;6.18;;;3.80;99.90;;;;;;4987128;28;20058;-70
2022/12/27 08:17:22;;;;;;;23.15;5.68;;;3.70;99.90;;;;;;4997374;28;20109;-70
2022/12/27 08:19:50;;;;;;;22.60;5.90;;;3.70;99.90;;;;;;5004385;28;20046;-70
2022/12/27 08:22:16;;;;;;;25.08;6.40;;;3.70;99.90;;;;;;4986850;28;20154;-66
2022/12/27 08:24:42;;;;;;;24.38;6.07;;;3.70;99.90;;;;;;4987651;28;20065;-68
2022/12/27 08:27:09;;;;;;;24.05;6.18;;;3.70;99.90;;;;;;4986552;28;20511;-70
2022/12/27 08:29:34;;;;;;;19.13;6.07;;;3.80;99.90;;;;;;5004512;28;20402;-69
2022/12/27 08:32:00;;;;;;;27.27;6.50;;;3.70;99.90;;;;;;5005750;28;20041;-66
2022/12/27 08:34:26;;;;;;;22.20;5.70;;;3.90;99.90;;;;;;4986757;28;20748;-68
2022/12/27 08:36:52;;;;;;;27.67;6.32;;;3.90;99.90;;;;;;4985234;28;20068;-69
2022/12/27 08:39:18;;;;;;;23.52;6.50;;;4.00;99.90;;;;;;4987676;28;20041;-67
2022/12/27 08:41:44;;;;;;;25.80;6.35;;;3.80;99.90;;;;;;4988859;28;20045;-68
2022/12/27 08:44:09;;;;;;;22.13;5.97;;;3.90;99.90;;;;;;5003966;28;20034;-70
2022/12/27 08:46:35;;;;;;;26.35;6.35;;;3.90;99.90;;;;;;4989930;28;20104;-67
2022/12/27 08:49:01;;;;;;;21.42;6.05;;;4.00;99.90;;;;;;4990288;28;20042;-68
2022/12/27 08:51:27;;;;;;;18.55;5.65;;;3.90;99.90;;;;;;5003160;28;20405;-69
2022/12/27 08:53:52;;;;;;;26.58;6.53;;;3.90;99.90;;;;;;4974220;28;20115;-66
2022/12/27 08:56:18;;;;;;;35.17;7.00;;;4.00;99.90;;;;;;4990168;28;20033;-68
2022/12/27 08:58:43;;;;;;;25.88;6.68;;;4.00;99.90;;;;;;4989216;28;20065;-67
2022/12/27 09:01:10;;;;;;;27.25;6.90;;;4.00;99.90;;;;;;4987199;28;20038;-68
2022/12/27 09:03:36;;;;;;;24.65;6.90;;;4.10;99.90;;;;;;5005124;28;20069;-69
2022/12/27 09:06:31;;;;;;;32.40;7.18;;;4.10;99.90;;;;;;4987568;28;20441;-68
2022/12/27 09:08:58;;;;;;;22.58;6.18;;;4.10;99.90;;;;;;4993699;28;20042;-68
2022/12/27 09:11:30;;;;;;;20.45;6.35;;;4.30;99.90;;;;;;5008195;28;20048;-69
2022/12/27 09:13:58;;;;;;;27.13;6.47;;;4.20;99.90;;;;;;4988397;28;20462;-68
2022/12/27 09:16:28;;;;;;;25.40;6.00;;;4.30;99.90;;;;;;5004121;28;20305;-69
2022/12/27 09:18:55;;;;;;;21.20;5.95;;;4.20;99.90;;;;;;4985151;28;20038;-68
2022/12/27 09:21:22;;;;;;;33.30;6.35;;;4.20;99.90;;;;;;4987985;28;20087;-66
2022/12/27 09:23:49;;;;;;;20.25;6.38;;;4.40;99.90;;;;;;4989115;28;20488;-70
2022/12/27 09:26:17;;;;;;;27.45;7.63;;;4.40;99.90;;;;;;4992121;28;20425;-71
2022/12/27 09:28:45;;;;;;;24.55;5.82;;;4.30;99.90;;;;;;4989537;28;20041;-65
2022/12/27 09:31:12;;;;;;;18.73;6.45;;;4.30;99.90;;;;;;5004284;28;20101;-67
2022/12/27 09:33:38;;;;;;;28.83;6.28;;;4.30;99.90;;;;;;4986652;28;20100;-68
2022/12/27 09:36:25;;;;;;;22.70;5.68;;;4.10;99.90;;;;;;4989869;28;20045;-68
2022/12/27 09:38:52;;;;;;;24.27;5.60;;;4.20;99.90;;;;;;5002150;28;20133;-70
2022/12/27 09:41:36;;;;;;;26.60;5.85;;;4.30;99.90;;;;;;4989708;28;20373;-69
2022/12/27 09:44:24;;;;;;;23.90;6.00;;;4.40;99.90;;;;;;4992257;28;20063;-68
2022/12/27 09:47:14;;;;;;;21.33;6.28;;;4.50;99.90;;;;;;4993494;28;20866;-67
2022/12/27 09:49:48;;;;;;;27.35;5.65;;;4.70;99.90;;;;;;4986733;28;20053;-68
2022/12/27 09:52:19;;;;;;;21.88;5.50;;;4.90;99.90;;;;;;5005846;28;20042;-67
2022/12/27 09:54:59;;;;;;;21.48;5.45;;;5.00;99.90;;;;;;4991328;28;20133;-69
2022/12/27 09:57:37;;;;;;;27.77;5.38;;;5.00;99.90;;;;;;4994118;28;20041;-69
2022/12/27 10:00:10;;;;;;;28.38;5.75;;;5.00;99.90;;;;;;4984767;28;20038;-67
2022/12/27 10:02:35;;;;;;;25.05;5.82;;;5.10;99.90;;;;;;4991547;28;20085;-68
2022/12/27 10:05:03;;;;;;;19.50;4.65;;;5.10;99.90;;;;;;4981652;28;20449;-69
2022/12/27 10:07:31;;;;;;;22.50;4.97;;;5.10;99.90;;;;;;4992057;28;20045;-72
2022/12/27 10:10:11;;;;;;;25.73;4.95;;;5.20;99.90;;;;;;4976947;28;20404;-69
2022/12/27 10:12:54;;;;;;;29.70;4.97;;;5.20;99.90;;;;;;5006905;28;20077;-68
2022/12/27 10:15:45;;;;;;;19.30;4.95;;;5.30;99.90;;;;;;4991784;28;20463;-69
2022/12/27 10:18:37;;;;;;;33.35;6.55;;;5.20;99.90;;;;;;4990830;28;20046;-65
2022/12/27 10:21:15;;;;;;;18.00;4.75;;;5.30;99.90;;;;;;4971125;28;20124;-69
2022/12/27 10:23:44;;;;;;;21.52;5.78;;;5.30;99.90;;;;;;4988661;28;20415;-67
2022/12/27 10:26:16;;;;;;;18.65;5.00;;;5.30;99.90;;;;;;4993340;28;20042;-66
2022/12/27 10:28:45;;;;;;;24.45;4.78;;;5.40;99.90;;;;;;4991318;28;20050;-68
2022/12/27 10:31:19;;;;;;;24.63;5.50;;;5.40;99.90;;;;;;4991664;28;20038;-68
2022/12/27 10:33:47;;;;;;;21.52;4.90;;;5.40;99.90;;;;;;4989887;28;20038;-72
2022/12/27 10:36:18;;;;;;;20.77;5.03;;;5.50;99.90;;;;;;4992091;28;20088;-69
2022/12/27 10:38:43;;;;;;;21.27;4.82;;;5.50;99.90;;;;;;5009605;28;20061;-68
2022/12/27 10:41:38;;;;;;;23.48;5.15;;;5.60;99.90;;;;;;4987744;28;20080;-68
2022/12/27 10:44:09;;;;;;;22.20;5.53;;;5.60;99.90;;;;;;4976998;28;20053;-71
2022/12/27 10:46:35;;;;;;;27.77;5.20;;;5.70;99.90;;;;;;4985504;28;20046;-68
2022/12/27 10:49:05;;;;;;;29.33;5.00;;;5.70;99.90;;;;;;5006171;28;20053;-68
2022/12/27 10:51:39;;;;;;;19.27;4.45;;;5.70;99.90;;;;;;4989691;28;20037;-68
2022/12/27 10:54:12;;;;;;;24.92;4.85;;;5.70;99.90;;;;;;4992003;28;20052;-67
2022/12/27 10:56:40;;;;;;;19.55;4.97;;;5.80;99.90;;;;;;4992887;28;20072;-69
2022/12/27 10:59:27;;;;;;;21.90;4.97;;;5.90;99.90;;;;;;4991500;28;20045;-68
2022/12/27 11:01:59;;;;;;;19.98;4.65;;;5.90;99.90;;;;;;4991433;28;20038;-67
2022/12/27 11:04:25;;;;;;;20.70;4.90;;;6.00;99.90;;;;;;4987328;28;20034;-67
2022/12/27 11:07:01;;;;;;;25.88;5.00;;;6.00;99.90;;;;;;5006913;28;20400;-68
2022/12/27 11:09:35;;;;;;;21.00;4.93;;;6.10;99.90;;;;;;4988066;28;20080;-69
2022/12/27 11:12:12;;;;;;;25.63;4.95;;;6.10;99.90;;;;;;4990231;28;20042;-68
2022/12/27 11:14:59;;;;;;;25.98;5.00;;;6.00;99.90;;;;;;4994322;28;20077;-68
2022/12/27 11:17:37;;;;;;;24.80;5.68;;;6.00;99.90;;;;;;4986092;28;20500;-68
2022/12/27 11:20:23;;;;;;;23.92;5.47;;;5.90;99.90;;;;;;5004206;28;20381;-68
2022/12/27 11:23:00;;;;;;;23.55;5.45;;;5.90;99.90;;;;;;4987362;28;20081;-66
2022/12/27 11:25:28;;;;;;;21.65;5.88;;;5.80;99.90;;;;;;4988976;28;20049;-70
2022/12/27 11:28:00;;;;;;;34.65;5.78;;;5.90;99.90;;;;;;4990398;28;20045;-72
2022/12/27 11:30:38;;;;;;;25.98;5.50;;;5.90;99.90;;;;;;4990323;28;20489;-67
2022/12/27 11:33:21;;;;;;;22.00;5.32;;;5.90;99.90;;;;;;4992127;28;20504;-69
2022/12/27 11:35:50;;;;;;;20.48;5.03;;;6.00;99.90;;;;;;4988675;28;20040;-71
2022/12/27 11:38:25;;;;;;;21.27;4.85;;;6.00;99.90;;;;;;4984564;28;20050;-65
2022/12/27 11:41:12;;;;;;;25.13;5.45;;;6.20;99.90;;;;;;4988281;28;20042;-66
2022/12/27 11:43:48;;;;;;;24.63;5.88;;;6.20;99.90;;;;;;4987771;28;20412;-66
2022/12/27 11:46:40;;;;;;;22.38;5.47;;;6.20;99.90;;;;;;4988011;28;20481;-67
2022/12/27 11:49:15;;;;;;;18.75;4.85;;;6.20;99.90;;;;;;4986534;28;20444;-68
2022/12/27 11:52:11;;;;;;;22.30;6.07;;;6.30;99.90;;;;;;4985510;28;20038;-67
2022/12/27 11:55:11;;;;;;;29.73;6.70;;;6.30;99.90;;;;;;5003482;28;20045;-66
2022/12/27 11:58:15;;;;;;;22.13;6.68;;;6.30;99.90;;;;;;4985243;28;20504;-68
2022/12/27 12:01:06;;;;;;;29.02;6.32;;;6.20;99.90;;;;;;4987505;28;20048;-66
2022/12/27 12:03:34;;;;;;;27.55;6.43;;;6.10;99.90;;;;;;5004394;28;20107;-70
2022/12/27 12:06:28;;;;;;;24.50;6.85;;;6.20;99.90;;;;;;4988303;28;20049;-70
2022/12/27 12:09:19;;;;;;;23.92;7.45;;;6.10;99.90;;;;;;4987167;28;20125;-65
2022/12/27 12:11:58;;;;;;;22.35;7.22;;;6.20;99.90;;;;;;4983883;28;20038;-67
2022/12/27 12:14:33;;;;;;;28.20;6.78;;;6.10;99.90;;;;;;5003358;28;21894;-67
2022/12/27 12:17:26;;;;;;;26.27;7.10;;;6.10;99.90;;;;;;4986611;28;20049;-69
2022/12/27 12:20:02;;;;;;;22.55;6.53;;;6.10;99.90;;;;;;4987668;28;20042;-67
2022/12/27 12:22:40;;;;;;;26.45;7.25;;;6.10;99.90;;;;;;4986357;28;20519;-67
2022/12/27 12:25:22;;;;;;;22.85;7.15;;;6.10;99.90;;;;;;4987574;28;20038;-72
2022/12/27 12:28:16;;;;;;;19.13;6.73;;;6.00;99.90;;;;;;5004034;28;20104;-68
2022/12/27 12:30:56;;;;;;;27.05;7.20;;;6.00;99.90;;;;;;4993278;28;20136;-70
2022/12/27 12:33:28;;;;;;;20.98;6.28;;;5.90;99.90;;;;;;4989928;28;20042;-67
2022/12/27 12:36:15;;;;;;;24.30;6.65;;;6.00;99.90;;;;;;4968361;28;20069;-70
2022/12/27 12:39:16;;;;;;;27.75;7.45;;;6.00;99.90;;;;;;4989365;28;20058;-69
2022/12/27 12:41:51;;;;;;;27.23;7.65;;;6.00;99.90;;;;;;4999511;28;20447;-69
2022/12/27 12:44:42;;;;;;;25.85;7.68;;;6.10;99.90;;;;;;4984251;28;20046;-72
2022/12/27 12:47:32;;;;;;;27.88;8.30;;;6.10;99.90;;;;;;4987183;28;20061;-69
2022/12/27 12:50:19;;;;;;;28.83;9.27;;;6.20;99.90;;;;;;4983552;28;20378;-68
2022/12/27 12:53:03;;;;;;;30.75;8.57;;;6.10;99.90;;;;;;4985823;28;20100;-69
2022/12/27 12:55:40;;;;;;;32.58;9.20;;;6.20;99.90;;;;;;4984539;28;20069;-71
2022/12/27 12:58:30;;;;;;;28.77;9.02;;;6.30;99.90;;;;;;4972367;28;20404;-73
2022/12/27 13:01:21;;;;;;;26.27;8.95;;;6.30;99.90;;;;;;4984214;28;20042;-73
2022/12/27 13:04:08;;;;;;;29.75;10.00;;;6.30;99.90;;;;;;4985836;28;20057;-71
2022/12/27 13:07:12;;;;;;;31.92;10.55;;;6.40;99.90;;;;;;4982687;28;20435;-77
2022/12/27 13:10:13;;;;;;;29.33;11.27;;;6.50;99.90;;;;;;4928039;29;20051;-76
2022/12/27 13:13:05;;;;;;;26.63;11.80;;;6.60;99.90;;;;;;4940565;28;20075;-75
2022/12/27 13:15:51;;;;;;;33.20;12.50;;;6.70;99.90;;;;;;4982930;28;20046;-75
2022/12/27 13:18:21;;;;;;;37.42;13.20;;;6.70;99.90;;;;;;4994702;28;20053;-74
2022/12/27 13:21:15;;;;;;;35.50;13.52;;;6.60;99.90;;;;;;4986985;28;20085;-75
2022/12/27 13:24:03;;;;;;;40.17;13.75;;;6.70;99.90;;;;;;4989795;28;20069;-76
2022/12/27 13:26:42;;;;;;;35.10;13.77;;;6.60;99.90;;;;;;4991129;28;20397;-74
2022/12/27 13:29:50;;;;;;;30.63;13.68;;;6.70;99.90;;;;;;4992587;28;20085;-75
2022/12/27 13:33:12;;;;;;;39.78;14.32;;;6.70;99.90;;;;;;4985567;28;20049;-75
2022/12/27 13:35:38;;;;;;;44.13;15.20;;;6.70;99.90;;;;;;4948961;28;20055;-72
2022/12/27 13:38:45;;;;;;;39.38;15.55;;;6.70;99.90;;;;;;4949711;28;20054;-70
2022/12/27 13:41:10;;;;;;;38.13;16.13;;;6.70;99.90;;;;;;4985023;28;20054;-72
2022/12/27 13:43:54;;;;;;;35.47;14.90;;;6.60;99.90;;;;;;5010634;28;20116;-71
2022/12/27 13:46:35;;;;;;;31.38;15.20;;;6.60;99.90;;;;;;4993902;28;20038;-72
2022/12/27 13:49:19;;;;;;;36.63;14.82;;;6.60;99.90;;;;;;4991708;28;20052;-70
2022/12/27 13:52:10;;;;;;;39.22;15.93;;;6.50;99.90;;;;;;4994182;28;20404;-75
2022/12/27 13:54:56;;;;;;;37.08;16.13;;;6.60;99.90;;;;;;4990336;28;20038;-74
2022/12/27 13:57:50;;;;;;;40.28;15.10;;;6.60;99.90;;;;;;4991984;28;20129;-76
2022/12/27 14:00:17;;;;;;;40.92;16.10;;;6.60;99.90;;;;;;4991574;28;20087;-75
2022/12/27 14:03:02;;;;;;;42.50;17.80;;;6.60;99.90;;;;;;5012777;28;20084;-73
2022/12/27 14:05:51;;;;;;;47.17;19.25;;;6.60;99.90;;;;;;4992297;28;20366;-75
2022/12/27 14:08:25;;;;;;;42.38;19.15;;;6.70;99.90;;;;;;4992443;28;20049;-74
2022/12/27 14:10:52;;;;;;;43.20;18.95;;;6.60;99.90;;;;;;4993453;28;20048;-74
2022/12/27 14:13:26;;;;;;;49.55;18.95;;;6.60;99.90;;;;;;4993508;28;20589;-76
2022/12/27 14:16:26;;;;;;;49.42;20.05;;;6.60;99.90;;;;;;4991771;28;20140;-71
2022/12/27 14:18:54;;;;;;;43.60;18.58;;;6.50;99.90;;;;;;4991703;28;20045;-76
2022/12/27 14:21:41;;;;;;;41.95;18.33;;;6.50;99.90;;;;;;4994584;28;20048;-72
2022/12/27 14:24:21;;;;;;;37.25;18.80;;;6.50;99.90;;;;;;4993826;28;20046;-74
2022/12/27 14:27:13;;;;;;;44.42;19.52;;;6.40;99.90;;;;;;4992103;28;20072;-76
2022/12/27 14:30:16;;;;;;;50.38;19.05;;;6.40;99.90;;;;;;4984173;28;20053;-73
2022/12/27 14:32:41;;;;;;;;;;;6.40;99.90;;;;;;4992895;28;20480;-69
2022/12/27 14:35:07;;;;;;;53.22;18.40;;;6.40;99.90;;;;;;4991201;28;20012;-74
2022/12/27 14:37:54;;;;;;;45.75;19.17;;;6.30;99.90;;;;;;4987377;28;20200;-71
2022/12/27 14:40:41;;;;;;;38.30;18.25;;;6.40;99.90;;;;;;4992480;28;20038;-71
2022/12/27 14:43:46;;;;;;;41.00;18.65;;;6.30;99.90;;;;;;5007728;28;20038;-74
2022/12/27 14:46:53;;;;;;;42.63;18.23;;;6.20;99.90;;;;;;4993428;28;20034;-73
2022/12/27 14:49:44;;;;;;;41.60;18.35;;;6.20;99.90;;;;;;4963243;28;20053;-70
2022/12/27 14:52:41;;;;;;;41.72;19.45;;;6.10;99.90;;;;;;4991376;28;20515;-74
2022/12/27 14:55:28;;;;;;;39.80;18.35;;;6.20;99.90;;;;;;4995171;28;20042;-72